createdAt,value
2022-09-20T00:01:08.070Z,2.87
2022-09-20T00:03:36.618Z,1.83
2022-09-20T00:06:05.084Z,2.83
2022-09-20T00:08:32.974Z,1.87
2022-09-20T00:11:02.510Z,2.90
2022-09-20T00:13:30.874Z,1.73
2022-09-20T00:15:58.671Z,2.77
2022-09-20T00:18:27.923Z,4.17
2022-09-20T00:20:55.430Z,2.83
2022-09-20T00:23:22.850Z,2.77
2022-09-20T00:25:56.888Z,2.87
2022-09-20T00:28:24.710Z,2.93
2022-09-20T00:30:52.810Z,2.17
2022-09-20T00:33:20.327Z,3.07
2022-09-20T00:35:48.245Z,2.30
2022-09-20T00:38:16.611Z,3.00
2022-09-20T00:40:45.724Z,2.63
2022-09-20T00:43:16.467Z,2.87
2022-09-20T00:45:46.654Z,3.60
2022-09-20T00:48:19.089Z,2.73
2022-09-20T00:50:53.202Z,2.50
2022-09-20T00:53:26.078Z,1.80
2022-09-20T00:55:56.835Z,2.27
2022-09-20T00:58:26.619Z,2.97
2022-09-20T01:00:57.447Z,2.27
2022-09-20T01:03:31.393Z,3.13
2022-09-20T01:06:04.085Z,2.10
2022-09-20T01:08:33.227Z,3.13
2022-09-20T01:11:01.024Z,4.70
2022-09-20T01:13:28.814Z,5.60
2022-09-20T01:16:00.322Z,2.60
2022-09-20T01:18:29.285Z,2.97
2022-09-20T01:20:57.665Z,7.97
2022-09-20T01:23:36.706Z,3.60
2022-09-20T01:26:34.414Z,3.10
2022-09-20T01:29:13.626Z,4.73
2022-09-20T01:31:47.060Z,3.70
2022-09-20T01:34:18.853Z,5.63
2022-09-20T01:36:50.678Z,2.97
2022-09-20T01:39:30.369Z,3.50
2022-09-20T01:41:59.985Z,3.43
2022-09-20T01:44:36.834Z,3.67
2022-09-20T01:47:12.062Z,4.53
2022-09-20T01:49:52.955Z,3.57
2022-09-20T01:52:56.021Z,3.93
2022-09-20T01:56:02.758Z,3.50
2022-09-20T01:59:23.310Z,3.07
2022-09-20T02:02:34.826Z,5.50
2022-09-20T02:05:15.389Z,3.47
2022-09-20T02:08:03.467Z,3.93
2022-09-20T02:10:57.177Z,2.63
2022-09-20T02:13:31.010Z,4.30
2022-09-20T02:16:25.891Z,3.03
2022-09-20T02:19:27.612Z,4.03
2022-09-20T02:22:10.122Z,3.03
2022-09-20T02:24:46.416Z,3.37
2022-09-20T02:27:25.018Z,3.87
2022-09-20T02:30:06.565Z,4.07
2022-09-20T02:32:54.445Z,5.83
2022-09-20T02:35:41.566Z,3.67
2022-09-20T02:38:18.454Z,3.10
2022-09-20T02:41:02.710Z,3.70
2022-09-20T02:43:36.470Z,3.30
2022-09-20T02:46:10.338Z,2.77
2022-09-20T02:48:45.275Z,3.37
2022-09-20T02:51:22.665Z,4.07
2022-09-20T02:54:05.471Z,5.10
2022-09-20T02:56:42.310Z,4.40
2022-09-20T02:59:21.100Z,4.27
2022-09-20T03:01:57.746Z,3.97
2022-09-20T03:04:38.831Z,4.70
2022-09-20T03:07:19.846Z,5.27
2022-09-20T03:10:07.211Z,5.13
2022-09-20T03:12:46.922Z,3.17
2022-09-20T03:15:24.807Z,3.47
2022-09-20T03:18:07.290Z,5.80
2022-09-20T03:20:44.878Z,5.53
2022-09-20T03:23:32.893Z,3.60
2022-09-20T03:26:12.989Z,3.23
2022-09-20T03:28:58.541Z,2.63
2022-09-20T03:31:38.630Z,4.73
2022-09-20T03:34:17.669Z,5.00
2022-09-20T03:36:58.265Z,4.50
2022-09-20T03:39:46.377Z,3.30
2022-09-20T03:42:17.447Z,2.77
2022-09-20T03:45:12.963Z,4.60
2022-09-20T03:48:06.613Z,4.80
2022-09-20T03:50:46.078Z,4.87
2022-09-20T03:53:46.255Z,4.90
2022-09-20T03:56:30.828Z,5.57
2022-09-20T03:59:18.981Z,3.90
2022-09-20T04:02:21.595Z,4.83
2022-09-20T04:04:54.545Z,2.93
2022-09-20T04:07:27.470Z,5.93
2022-09-20T04:10:28.491Z,3.93
2022-09-20T04:13:17.943Z,4.60
2022-09-20T04:15:57.884Z,4.20
2022-09-20T04:18:34.621Z,5.50
2022-09-20T04:21:09.145Z,3.17
2022-09-20T04:23:45.887Z,3.77
2022-09-20T04:26:16.711Z,4.63
2022-09-20T04:28:49.862Z,3.37
2022-09-20T04:31:26.838Z,3.50
2022-09-20T04:33:58.274Z,4.23
2022-09-20T04:36:37.429Z,3.40
2022-09-20T04:39:16.510Z,2.70
2022-09-20T04:42:22.407Z,6.70
2022-09-20T04:45:17.864Z,4.43
2022-09-20T04:48:10.501Z,4.13
2022-09-20T04:50:59.187Z,4.23
2022-09-20T04:54:05.471Z,3.90
2022-09-20T04:56:50.042Z,4.63
2022-09-20T04:59:32.031Z,3.90
2022-09-20T05:02:42.491Z,4.90
2022-09-20T05:05:32.286Z,6.20
2022-09-20T05:08:44.747Z,4.27
2022-09-20T05:11:30.670Z,3.50
2022-09-20T05:14:12.862Z,5.30
2022-09-20T05:17:00.325Z,3.97
2022-09-20T05:19:37.390Z,6.43
2022-09-20T05:22:31.246Z,4.50
2022-09-20T05:25:25.924Z,6.10
2022-09-20T05:27:58.108Z,4.23
2022-09-20T05:30:34.902Z,3.17
2022-09-20T05:33:12.933Z,3.53
2022-09-20T05:35:49.914Z,4.60
2022-09-20T05:38:27.301Z,4.37
2022-09-20T05:41:07.673Z,3.43
2022-09-20T05:43:38.949Z,4.87
2022-09-20T05:46:18.858Z,5.33
2022-09-20T05:48:56.440Z,4.27
2022-09-20T05:51:48.133Z,5.23
2022-09-20T05:54:28.364Z,4.07
2022-09-20T05:57:08.183Z,5.10
2022-09-20T05:59:51.690Z,4.93
2022-09-20T06:02:32.176Z,5.83
2022-09-20T06:05:04.673Z,6.27
2022-09-20T06:07:46.046Z,6.13
2022-09-20T06:10:43.651Z,4.97
2022-09-20T06:13:30.078Z,4.40
2022-09-20T06:16:01.382Z,6.57
2022-09-20T06:18:33.870Z,6.03
2022-09-20T06:21:10.138Z,5.00
2022-09-20T06:23:37.941Z,5.17
2022-09-20T06:26:16.757Z,4.63
2022-09-20T06:28:48.353Z,4.40
2022-09-20T06:31:17.818Z,4.70
2022-09-20T06:33:50.360Z,5.00
2022-09-20T06:36:40.258Z,5.33
2022-09-20T06:39:35.706Z,5.00
2022-09-20T06:42:06.168Z,5.63
2022-09-20T06:44:33.961Z,4.10
2022-09-20T06:47:01.638Z,3.47
2022-09-20T06:49:29.308Z,4.27
2022-09-20T06:51:57.430Z,4.23
2022-09-20T06:54:26.944Z,4.93
2022-09-20T06:56:54.675Z,5.10
2022-09-20T06:59:23.466Z,4.13
2022-09-20T07:01:50.939Z,5.33
2022-09-20T07:04:18.396Z,5.13
2022-09-20T07:06:45.797Z,7.50
2022-09-20T07:09:13.328Z,5.10
2022-09-20T07:11:40.923Z,6.00
2022-09-20T07:14:08.394Z,5.20
2022-09-20T07:16:37.671Z,5.87
2022-09-20T07:19:06.498Z,7.67
2022-09-20T07:21:33.914Z,5.13
2022-09-20T07:24:01.913Z,6.03
2022-09-20T07:26:30.911Z,5.33
2022-09-20T07:29:00.532Z,6.07
2022-09-20T07:31:29.948Z,5.07
2022-09-20T07:33:58.797Z,4.17
2022-09-20T07:36:26.237Z,4.17
2022-09-20T07:38:54.114Z,4.73
2022-09-20T07:41:22.661Z,4.13
2022-09-20T07:43:50.941Z,3.73
2022-09-20T07:46:22.973Z,4.77
2022-09-20T07:48:50.486Z,3.53
2022-09-20T07:51:19.293Z,3.17
2022-09-20T07:53:46.678Z,4.40
2022-09-20T07:56:15.907Z,3.17
2022-09-20T07:58:47.374Z,4.33
2022-09-20T08:01:20.992Z,4.47
2022-09-20T08:03:49.158Z,3.63
2022-09-20T08:06:18.295Z,4.13
2022-09-20T08:08:47.158Z,3.53
2022-09-20T08:11:17.021Z,3.17
2022-09-20T08:16:33.433Z,4.23
2022-09-20T08:19:02.259Z,3.60
2022-09-20T08:21:32.693Z,4.20
2022-09-20T08:24:03.797Z,4.27
2022-09-20T08:26:32.240Z,3.90
2022-09-20T08:29:01.125Z,3.87
2022-09-20T08:31:36.681Z,4.27
2022-09-20T08:34:06.364Z,2.80
2022-09-20T08:36:37.153Z,3.60
2022-09-20T08:41:56.557Z,4.33
2022-09-20T08:44:27.607Z,2.20
2022-09-20T08:47:05.509Z,3.70
2022-09-20T08:49:34.025Z,3.80
2022-09-20T08:52:03.030Z,3.37
2022-09-20T08:54:34.823Z,4.00
2022-09-20T08:57:07.019Z,3.43
2022-09-20T08:59:34.950Z,3.10
2022-09-20T09:02:02.565Z,3.40
2022-09-20T09:04:36.350Z,3.57
2022-09-20T09:07:04.149Z,2.40
2022-09-20T09:09:37.713Z,3.40
2022-09-20T09:12:06.818Z,1.97
2022-09-20T09:14:54.659Z,3.57
2022-09-20T09:17:27.460Z,3.03
2022-09-20T09:19:57.248Z,3.27
2022-09-20T09:22:32.043Z,4.07
2022-09-20T09:25:24.275Z,2.80
2022-09-20T09:27:54.802Z,3.73
2022-09-20T09:30:25.702Z,2.23
2022-09-20T09:32:54.010Z,3.27
2022-09-20T09:35:29.246Z,2.87
2022-09-20T09:37:58.547Z,2.97
2022-09-20T09:40:29.098Z,2.97
2022-09-20T09:42:58.663Z,2.50
2022-09-20T09:45:34.636Z,4.20
2022-09-20T09:48:03.141Z,2.33
2022-09-20T09:50:33.466Z,2.60
2022-09-20T09:53:04.136Z,3.27
2022-09-20T09:55:51.894Z,2.60
2022-09-20T09:58:31.338Z,2.93
2022-09-20T10:01:02.830Z,5.13
2022-09-20T10:03:42.729Z,2.40
2022-09-20T10:06:23.814Z,2.57
2022-09-20T10:09:13.881Z,2.17
2022-09-20T10:11:58.691Z,2.83
2022-09-20T10:14:42.086Z,3.13
2022-09-20T10:17:25.199Z,2.40
2022-09-20T10:20:08.514Z,1.43
2022-09-20T10:23:06.625Z,3.87
2022-09-20T10:25:43.091Z,3.07
2022-09-20T10:28:29.379Z,2.00
2022-09-20T10:31:06.738Z,1.93
2022-09-20T10:33:45.022Z,2.28
2022-09-20T10:36:19.458Z,3.88
2022-09-20T10:38:55.630Z,2.33
2022-09-20T10:41:56.071Z,2.05
2022-09-20T10:44:39.609Z,1.77
2022-09-20T10:47:14.785Z,2.60
2022-09-20T10:49:50.672Z,1.47
2022-09-20T10:52:38.253Z,2.77
2022-09-20T10:55:20.277Z,1.43
2022-09-20T10:58:20.526Z,1.90
2022-09-20T11:00:57.972Z,3.23
2022-09-20T11:03:45.658Z,2.17
2022-09-20T11:06:19.486Z,2.47
2022-09-20T11:08:51.603Z,2.50
2022-09-20T11:11:23.625Z,2.07
2022-09-20T11:14:01.673Z,2.37
2022-09-20T11:16:36.922Z,1.60
2022-09-20T11:19:13.206Z,2.33
2022-09-20T11:21:47.325Z,1.47
2022-09-20T11:24:19.081Z,1.67
2022-09-20T11:26:51.947Z,1.30
2022-09-20T11:29:29.822Z,1.73
2022-09-20T11:32:07.238Z,1.73
2022-09-20T11:34:40.918Z,1.67
2022-09-20T11:37:10.297Z,2.13
2022-09-20T11:39:43.913Z,1.25
2022-09-20T11:42:16.844Z,1.80
2022-09-20T11:44:44.611Z,2.95
2022-09-20T11:47:42.756Z,1.80
2022-09-20T11:50:38.414Z,2.08
2022-09-20T11:53:14.127Z,1.73
2022-09-20T11:55:48.228Z,1.45
2022-09-20T11:58:19.010Z,1.30
2022-09-20T12:00:49.001Z,2.23
2022-09-20T12:03:31.389Z,1.10
2022-09-20T12:06:00.527Z,2.13
2022-09-20T12:08:31.458Z,1.57
2022-09-20T12:11:04.202Z,1.73
2022-09-20T12:13:35.206Z,1.90
2022-09-20T12:16:05.933Z,1.52
2022-09-20T12:19:03.030Z,2.65
2022-09-20T12:21:30.670Z,2.67
2022-09-20T12:24:21.075Z,3.08
2022-09-20T12:26:51.160Z,2.15
2022-09-20T12:29:57.239Z,4.30
2022-09-20T12:32:44.958Z,2.38
2022-09-20T12:36:00.993Z,7.55
2022-09-20T12:38:38.809Z,2.47
2022-09-20T12:41:13.235Z,2.30
2022-09-20T12:43:54.173Z,2.30
2022-09-20T12:46:25.451Z,1.60
2022-09-20T12:49:10.898Z,1.80
2022-09-20T12:51:55.853Z,2.63
2022-09-20T12:54:24.692Z,1.25
2022-09-20T12:56:52.118Z,1.90
2022-09-20T12:59:24.338Z,1.58
2022-09-20T13:01:52.003Z,1.23
2022-09-20T13:04:54.823Z,1.30
2022-09-20T13:07:48.795Z,1.55
2022-09-20T13:10:30.369Z,1.98
2022-09-20T13:13:26.882Z,0.95
2022-09-20T13:15:55.247Z,2.38
2022-09-20T13:18:25.068Z,1.27
2022-09-20T13:20:53.881Z,0.77
2022-09-20T13:23:27.054Z,1.30
2022-09-20T13:25:58.489Z,1.55
2022-09-20T13:28:40.680Z,1.48
2022-09-20T13:31:28.836Z,0.80
2022-09-20T13:34:12.897Z,1.15
2022-09-20T13:36:40.761Z,1.45
2022-09-20T13:39:08.722Z,1.70
2022-09-20T13:41:39.201Z,1.58
2022-09-20T13:44:07.306Z,0.82
2022-09-20T13:46:35.237Z,1.70
2022-09-20T13:49:17.390Z,1.40
2022-09-20T13:51:45.023Z,2.10
2022-09-20T13:54:21.938Z,1.45
2022-09-20T13:56:52.323Z,1.40
2022-09-20T13:59:20.398Z,2.08
2022-09-20T14:01:51.981Z,2.78
2022-09-20T14:04:22.646Z,1.38
2022-09-20T14:06:51.901Z,3.65
2022-09-20T14:09:24.499Z,4.28
2022-09-20T14:11:54.396Z,1.25
2022-09-20T14:14:24.086Z,1.60
2022-09-20T14:16:52.857Z,1.20
2022-09-20T14:19:24.333Z,1.92
2022-09-20T14:21:52.031Z,1.92
2022-09-20T14:24:31.783Z,2.00
2022-09-20T14:27:16.497Z,2.08
2022-09-20T14:29:45.676Z,1.48
2022-09-20T14:32:25.002Z,1.75
2022-09-20T14:35:01.651Z,2.25
2022-09-20T14:37:32.460Z,2.08
2022-09-20T14:40:02.347Z,1.83
2022-09-20T14:42:36.590Z,1.20
2022-09-20T14:45:05.923Z,1.13
2022-09-20T14:47:39.210Z,2.58
2022-09-20T14:50:24.426Z,1.33
2022-09-20T14:53:22.691Z,1.17
2022-09-20T14:56:11.324Z,2.65
2022-09-20T14:59:18.325Z,1.20
2022-09-20T15:02:05.110Z,2.15
2022-09-20T15:04:35.342Z,2.03
2022-09-20T15:07:06.173Z,1.77
2022-09-20T15:09:35.053Z,3.38
2022-09-20T15:12:07.621Z,1.48
2022-09-20T15:14:37.925Z,1.38
2022-09-20T15:17:07.506Z,1.63
2022-09-20T15:19:35.037Z,1.52
2022-09-20T15:22:02.517Z,1.65
2022-09-20T15:24:29.925Z,1.25
2022-09-20T15:26:57.477Z,1.73
2022-09-20T15:29:25.906Z,1.45
2022-09-20T15:31:53.678Z,1.42
2022-09-20T15:34:22.663Z,1.27
2022-09-20T15:36:50.625Z,1.25
2022-09-20T15:39:18.194Z,1.80
2022-09-20T15:41:45.907Z,1.15
2022-09-20T15:44:17.057Z,1.20
2022-09-20T15:46:44.494Z,1.52
2022-09-20T15:49:13.257Z,2.00
2022-09-20T15:51:42.021Z,2.95
2022-09-20T15:54:14.704Z,2.00
2022-09-20T15:56:42.694Z,1.20
2022-09-20T15:59:12.186Z,1.10
2022-09-20T16:01:41.046Z,1.43
2022-09-20T16:04:10.201Z,1.20
2022-09-20T16:06:38.245Z,1.40
2022-09-20T16:09:08.368Z,1.73
2022-09-20T16:11:37.218Z,1.53
2022-09-20T16:14:04.651Z,1.80
2022-09-20T16:16:39.773Z,1.13
2022-09-20T16:19:21.215Z,1.57
2022-09-20T16:21:57.310Z,0.90
2022-09-20T16:24:28.784Z,1.30
2022-09-20T16:26:56.307Z,1.00
2022-09-20T16:29:25.526Z,1.17
2022-09-20T16:31:54.687Z,1.27
2022-09-20T16:34:23.856Z,0.50
2022-09-20T16:36:53.048Z,0.97
2022-09-20T16:39:27.399Z,0.97
2022-09-20T16:41:58.050Z,0.37
2022-09-20T16:44:25.558Z,0.83
2022-09-20T16:46:53.012Z,1.00
2022-09-20T16:49:20.430Z,0.70
2022-09-20T16:51:47.910Z,1.10
2022-09-20T16:54:17.348Z,0.73
2022-09-20T16:56:46.741Z,3.00
2022-09-20T16:59:17.606Z,0.93
2022-09-20T17:01:46.003Z,0.70
2022-09-20T17:04:14.361Z,1.00
2022-09-20T17:06:43.269Z,0.60
2022-09-20T17:09:11.934Z,1.60
2022-09-20T17:11:41.637Z,1.40
2022-09-20T17:14:09.668Z,1.47
2022-09-20T17:16:40.225Z,5.53
2022-09-20T17:19:10.869Z,1.60
2022-09-20T17:21:40.130Z,0.73
2022-09-20T17:24:08.307Z,1.07
2022-09-20T17:26:38.205Z,1.00
2022-09-20T17:29:07.563Z,1.50
2022-09-20T17:31:37.690Z,1.87
2022-09-20T17:34:08.371Z,1.40
2022-09-20T17:36:39.042Z,1.33
2022-09-20T17:39:08.509Z,1.87
2022-09-20T17:41:36.482Z,2.00
2022-09-20T17:44:07.912Z,1.33
2022-09-20T17:46:36.964Z,1.50
2022-09-20T17:49:07.550Z,2.27
2022-09-20T17:51:37.145Z,1.83
2022-09-20T17:54:05.548Z,1.43
2022-09-20T17:56:33.343Z,0.83
2022-09-20T17:59:02.676Z,1.87
2022-09-20T18:01:31.859Z,2.07
2022-09-20T18:04:01.524Z,2.30
2022-09-20T18:06:32.499Z,2.40
2022-09-20T18:09:02.439Z,2.83
2022-09-20T18:11:32.450Z,1.40
2022-09-20T18:14:00.390Z,1.63
2022-09-20T18:16:27.887Z,1.67
2022-09-20T18:18:55.598Z,1.37
2022-09-20T18:21:25.818Z,1.53
2022-09-20T18:23:55.277Z,1.60
2022-09-20T18:26:24.457Z,1.30
2022-09-20T18:28:53.186Z,2.03
2022-09-20T18:31:20.641Z,1.60
2022-09-20T18:33:49.650Z,0.87
2022-09-20T18:36:18.266Z,1.30
2022-09-20T18:38:46.440Z,1.60
2022-09-20T18:41:15.169Z,1.10
2022-09-20T18:43:45.585Z,2.00
2022-09-20T18:46:13.750Z,3.03
2022-09-20T18:48:41.425Z,3.13
2022-09-20T18:51:09.737Z,2.40
2022-09-20T18:53:38.554Z,2.00
2022-09-20T18:56:08.045Z,3.07
2022-09-20T18:58:38.466Z,1.80
2022-09-20T19:01:20.642Z,1.27
2022-09-20T19:03:58.758Z,0.80
2022-09-20T19:06:31.435Z,0.70
2022-09-20T19:09:03.998Z,1.10
2022-09-20T19:11:38.131Z,1.13
2022-09-20T19:14:17.162Z,1.73
2022-09-20T19:16:48.751Z,0.80
2022-09-20T19:19:28.526Z,1.63
2022-09-20T19:22:04.002Z,2.07
2022-09-20T19:24:56.669Z,1.00
2022-09-20T19:27:25.638Z,1.00
2022-09-20T19:29:55.217Z,1.07
2022-09-20T19:32:26.025Z,1.53
2022-09-20T19:34:56.225Z,1.10
2022-09-20T19:37:34.024Z,0.83
2022-09-20T19:40:22.930Z,0.93
2022-09-20T19:43:03.534Z,1.53
2022-09-20T19:45:44.625Z,0.97
2022-09-20T19:48:22.129Z,1.00
2022-09-20T19:50:52.469Z,1.47
2022-09-20T19:53:24.014Z,0.90
2022-09-20T19:55:54.653Z,1.43
2022-09-20T19:58:23.387Z,1.23
2022-09-20T20:00:52.894Z,1.17
2022-09-20T20:03:23.462Z,1.17
2022-09-20T20:05:57.402Z,1.47
2022-09-20T20:08:35.087Z,0.70
2022-09-20T20:11:09.548Z,1.20
2022-09-20T20:14:04.040Z,1.10
2022-09-20T20:16:45.414Z,1.13
2022-09-20T20:19:30.925Z,0.90
2022-09-20T20:22:03.430Z,1.23
2022-09-20T20:24:38.146Z,1.40
2022-09-20T20:27:05.577Z,2.10
2022-09-20T20:29:33.007Z,3.90
2022-09-20T20:32:01.959Z,2.23
2022-09-20T20:34:30.074Z,1.57
2022-09-20T20:37:00.250Z,2.00
2022-09-20T20:39:28.651Z,1.20
2022-09-20T20:42:01.811Z,1.80
2022-09-20T20:44:29.889Z,1.97
2022-09-20T20:46:57.321Z,1.53
2022-09-20T20:49:26.125Z,2.23
2022-09-20T20:51:53.713Z,1.20
2022-09-20T20:54:21.446Z,1.23
2022-09-20T20:56:48.845Z,1.93
2022-09-20T20:59:17.367Z,0.80
2022-09-20T21:01:45.790Z,1.33
2022-09-20T21:04:15.130Z,1.13
2022-09-20T21:06:43.942Z,1.50
2022-09-20T21:09:12.045Z,0.83
2022-09-20T21:11:44.144Z,0.73
2022-09-20T21:14:12.973Z,0.93
2022-09-20T21:16:43.450Z,0.60
2022-09-20T21:19:14.614Z,0.67
2022-09-20T21:21:45.847Z,0.80
2022-09-20T21:24:16.999Z,0.50
2022-09-20T21:26:46.077Z,1.93
2022-09-20T21:29:15.531Z,0.73
2022-09-20T21:31:45.606Z,0.73
2022-09-20T21:34:15.535Z,1.03
2022-09-20T21:36:45.442Z,0.63
2022-09-20T21:39:13.144Z,0.93
2022-09-20T21:41:40.974Z,0.70
2022-09-20T21:44:10.651Z,0.87
2022-09-20T21:46:39.904Z,0.87
2022-09-20T21:49:10.798Z,1.40
2022-09-20T21:51:40.173Z,1.83
2022-09-20T21:54:09.648Z,1.43
2022-09-20T21:56:38.565Z,1.73
2022-09-20T21:59:07.584Z,2.30
2022-09-20T22:01:36.879Z,1.83
2022-09-20T22:04:06.849Z,1.17
2022-09-20T22:06:36.797Z,0.87
2022-09-20T22:09:07.266Z,0.80
2022-09-20T22:11:39.035Z,0.87
2022-09-20T22:14:07.657Z,1.13
2022-09-20T22:16:37.009Z,2.10
2022-09-20T22:19:05.174Z,1.13
2022-09-20T22:21:34.718Z,0.77
2022-09-20T22:24:04.593Z,1.07
2022-09-20T22:26:34.201Z,1.27
2022-09-20T22:29:02.986Z,0.80
2022-09-20T22:31:31.753Z,1.43
2022-09-20T22:34:01.234Z,0.90
2022-09-20T22:36:31.690Z,0.77
2022-09-20T22:38:59.386Z,1.00
2022-09-20T22:41:27.499Z,0.70
2022-09-20T22:43:55.183Z,1.03
2022-09-20T22:46:25.825Z,0.40
2022-09-20T22:48:53.322Z,0.90
2022-09-20T22:51:22.480Z,1.67
2022-09-20T22:53:51.082Z,1.43
2022-09-20T22:56:20.993Z,1.43
2022-09-20T22:58:50.008Z,1.17
2022-09-20T23:01:20.242Z,4.00
2022-09-20T23:03:53.985Z,1.33
2022-09-20T23:06:23.682Z,0.60
2022-09-20T23:08:52.410Z,1.13
2022-09-20T23:11:20.849Z,1.40
2022-09-20T23:13:48.865Z,2.67
2022-09-20T23:16:18.730Z,1.57
2022-09-20T23:18:46.931Z,1.30
2022-09-20T23:21:16.470Z,1.33
2022-09-20T23:23:44.563Z,1.67
2022-09-20T23:26:13.577Z,1.33
2022-09-20T23:28:43.787Z,0.97
2022-09-20T23:31:13.388Z,1.00
2022-09-20T23:33:44.794Z,1.40
2022-09-20T23:36:15.980Z,1.60
2022-09-20T23:38:43.402Z,0.70
2022-09-20T23:41:13.382Z,1.20
2022-09-20T23:43:41.787Z,1.10
2022-09-20T23:46:10.948Z,2.70
2022-09-20T23:48:41.312Z,1.90
2022-09-20T23:51:10.381Z,0.77
2022-09-20T23:53:39.572Z,1.97
2022-09-20T23:56:07.910Z,0.73
2022-09-20T23:58:37.471Z,1.37
